LFLL

Lyon Saint-Exupéry Airport

Lyon, France
TAF LFLL 211700Z 2118/2224 35009KT CAVOK
Issued Valid From Valid To
Jul-21 @ 17:00 UTC
(6 hours ago)
Jul-21 @ 18:00 UTC
(5 hours ago)
Jul-23 @ 00:00 UTC
(-1 days ago)
Jul-21 @ 18:00 to Jul-23 @ 00:00
TAF LFLL 211700Z 2118/2224 35009KT CAVOK
Wind Visibility Clouds Conditions
350° at 9 knots 10,000+ meters
  • No significant clouds
TAF LFLL 211700Z 2118/2224 35009KT CAVOK
Issued Jul-21 @ 17:00 UTC
(6 hours ago)
Valid From Jul-21 @ 18:00 UTC
(5 hours ago)
Valid To Jul-23 @ 00:00 UTC
(-1 days ago)
Jul-21 @ 18:00 - Jul-23 @ 00:00
Wind Visibility
350° at 9 knots 10,000+ meters
Clouds
  • No significant clouds
Conditions